createdAt,value
2023-09-08T00:02:29.577Z,6.07
2023-09-08T00:04:57.069Z,5.70
2023-09-08T00:07:24.181Z,6.17
2023-09-08T00:09:51.450Z,5.30
2023-09-08T00:12:18.758Z,5.30
2023-09-08T00:14:45.781Z,5.37
2023-09-08T00:17:12.953Z,5.23
2023-09-08T00:19:40.201Z,5.27
2023-09-08T00:22:07.530Z,5.57
2023-09-08T00:24:35.167Z,5.90
2023-09-08T00:27:02.458Z,5.87
2023-09-08T00:29:30.000Z,5.60
2023-09-08T00:31:57.237Z,5.57
2023-09-08T00:34:24.783Z,5.00
2023-09-08T00:36:52.354Z,5.07
2023-09-08T00:39:20.672Z,4.63
2023-09-08T00:41:47.633Z,6.17
2023-09-08T00:44:14.957Z,6.13
2023-09-08T00:46:42.032Z,5.73
2023-09-08T00:49:10.223Z,6.30
2023-09-08T00:51:39.039Z,5.83
2023-09-08T00:54:07.670Z,5.80
2023-09-08T00:56:36.443Z,5.83
2023-09-08T00:59:04.043Z,6.20
2023-09-08T01:01:32.129Z,6.20
2023-09-08T01:03:59.638Z,5.40
2023-09-08T01:06:27.540Z,6.33
2023-09-08T01:08:56.258Z,5.70
2023-09-08T01:11:23.768Z,5.60
2023-09-08T01:13:50.704Z,6.37
2023-09-08T01:16:17.814Z,6.20
2023-09-08T01:18:47.457Z,5.83
2023-09-08T01:22:12.946Z,5.73
2023-09-08T01:25:01.572Z,6.63
2023-09-08T01:27:30.801Z,6.83
2023-09-08T01:29:58.537Z,6.10
2023-09-08T01:32:26.054Z,6.10
2023-09-08T01:34:53.571Z,6.90
2023-09-08T01:37:24.518Z,6.50
2023-09-08T01:39:51.629Z,6.53
2023-09-08T01:42:18.634Z,6.00
2023-09-08T01:44:45.556Z,7.07
2023-09-08T01:47:13.605Z,7.20
2023-09-08T01:49:40.721Z,6.53
2023-09-08T01:52:07.732Z,6.90
2023-09-08T01:54:34.796Z,6.70
2023-09-08T01:57:01.763Z,6.50
2023-09-08T01:59:28.758Z,5.93
2023-09-08T02:01:55.727Z,6.20
2023-09-08T02:04:22.995Z,6.93
2023-09-08T02:06:49.953Z,6.37
2023-09-08T02:09:17.269Z,6.90
2023-09-08T02:11:44.291Z,6.30
2023-09-08T02:14:11.320Z,6.53
2023-09-08T02:16:38.284Z,7.10
2023-09-08T02:19:05.374Z,6.63
2023-09-08T02:21:32.585Z,6.90
2023-09-08T02:24:01.201Z,6.80
2023-09-08T02:26:28.735Z,6.70
2023-09-08T02:28:55.846Z,6.87
2023-09-08T02:31:23.325Z,6.60
2023-09-08T02:33:50.476Z,7.07
2023-09-08T02:36:17.454Z,6.50
2023-09-08T02:38:44.423Z,6.70
2023-09-08T02:41:11.367Z,7.00
2023-09-08T02:43:38.381Z,7.00
2023-09-08T02:46:05.381Z,7.00
2023-09-08T02:48:32.651Z,6.50
2023-09-08T02:50:59.671Z,6.60
2023-09-08T02:53:29.614Z,6.70
2023-09-08T02:55:59.145Z,7.13
2023-09-08T02:58:28.894Z,6.00
2023-09-08T03:00:56.390Z,6.27
2023-09-08T03:03:23.502Z,6.43
2023-09-08T03:05:57.649Z,6.97
2023-09-08T03:08:24.738Z,7.23
2023-09-08T03:10:56.834Z,6.50
2023-09-08T03:13:23.823Z,6.77
2023-09-08T03:15:50.844Z,6.83
2023-09-08T03:18:18.833Z,6.67
2023-09-08T03:20:50.970Z,6.83
2023-09-08T03:23:18.356Z,6.63
2023-09-08T03:25:45.486Z,8.10
2023-09-08T03:28:13.208Z,7.00
2023-09-08T03:30:40.418Z,7.30
2023-09-08T03:33:07.548Z,7.20
2023-09-08T03:35:34.726Z,7.10
2023-09-08T03:38:01.718Z,6.97
2023-09-08T03:40:28.709Z,7.40
2023-09-08T03:42:55.806Z,6.90
2023-09-08T03:45:22.747Z,7.07
2023-09-08T03:47:49.900Z,6.80
2023-09-08T03:50:17.164Z,6.77
2023-09-08T03:52:44.126Z,6.80
2023-09-08T03:55:11.109Z,7.23
2023-09-08T03:57:38.174Z,7.53
2023-09-08T04:00:07.638Z,6.73
2023-09-08T04:02:34.683Z,6.67
2023-09-08T04:05:02.188Z,7.27
2023-09-08T04:07:29.342Z,7.43
2023-09-08T04:09:56.296Z,6.43
2023-09-08T04:12:23.428Z,6.73
2023-09-08T04:14:50.522Z,7.63
2023-09-08T04:17:17.474Z,7.20
2023-09-08T04:19:44.840Z,7.40
2023-09-08T04:22:11.797Z,6.73
2023-09-08T04:24:39.337Z,6.80
2023-09-08T04:27:06.332Z,7.20
2023-09-08T04:29:34.107Z,7.30
2023-09-08T04:32:01.213Z,6.93
2023-09-08T04:34:28.185Z,6.80
2023-09-08T04:36:55.157Z,6.63
2023-09-08T04:39:22.376Z,7.00
2023-09-08T04:41:49.978Z,7.40
2023-09-08T04:44:16.994Z,7.07
2023-09-08T04:46:44.270Z,7.73
2023-09-08T04:49:11.331Z,7.17
2023-09-08T04:51:38.352Z,7.80
2023-09-08T04:54:05.408Z,6.90
2023-09-08T04:56:32.364Z,7.67
2023-09-08T04:59:02.014Z,7.10
2023-09-08T05:01:31.139Z,7.60
2023-09-08T05:03:58.292Z,7.00
2023-09-08T05:06:25.860Z,7.30
2023-09-08T05:08:53.048Z,7.03
2023-09-08T05:11:20.618Z,7.30
2023-09-08T05:13:50.982Z,7.00
2023-09-08T05:16:20.070Z,7.07
2023-09-08T05:18:50.505Z,7.00
2023-09-08T05:21:20.335Z,6.80
2023-09-08T05:23:47.749Z,7.23
2023-09-08T05:26:15.476Z,7.80
2023-09-08T05:28:42.861Z,7.40
2023-09-08T05:31:11.183Z,6.17
2023-09-08T05:33:38.782Z,7.10
2023-09-08T05:36:05.965Z,6.57
2023-09-08T05:38:33.162Z,6.57
2023-09-08T05:41:00.424Z,6.10
2023-09-08T05:43:27.370Z,6.53
2023-09-08T05:45:54.301Z,6.00
2023-09-08T05:48:21.330Z,6.27
2023-09-08T05:50:48.669Z,7.03
2023-09-08T05:53:15.891Z,7.57
2023-09-08T05:55:42.831Z,6.50
2023-09-08T05:58:09.873Z,7.10
2023-09-08T06:00:36.808Z,7.03
2023-09-08T06:03:04.720Z,7.20
2023-09-08T06:05:31.781Z,6.60
2023-09-08T06:08:07.072Z,7.00
2023-09-08T06:10:34.526Z,7.10
2023-09-08T06:13:02.746Z,6.57
2023-09-08T06:15:30.518Z,6.67
2023-09-08T06:17:57.785Z,6.77
2023-09-08T06:20:26.005Z,6.40
2023-09-08T06:22:53.029Z,6.70
2023-09-08T06:25:20.004Z,7.20
2023-09-08T06:27:47.130Z,6.50
2023-09-08T06:30:18.978Z,6.43
2023-09-08T06:32:46.072Z,7.30
2023-09-08T06:35:13.256Z,7.17
2023-09-08T06:37:40.625Z,7.17
2023-09-08T06:40:08.207Z,6.70
2023-09-08T06:42:35.343Z,6.90
2023-09-08T06:45:03.012Z,6.40
2023-09-08T06:47:30.400Z,7.30
2023-09-08T06:49:57.606Z,7.20
2023-09-08T06:52:24.702Z,8.13
2023-09-08T06:54:51.759Z,7.37
2023-09-08T06:57:23.002Z,7.80
2023-09-08T06:59:49.977Z,7.00
2023-09-08T07:02:17.110Z,8.07
2023-09-08T07:04:44.230Z,8.00
2023-09-08T07:07:11.646Z,8.23
2023-09-08T07:09:39.259Z,8.23
2023-09-08T07:12:07.379Z,7.80
2023-09-08T07:14:34.456Z,8.57
2023-09-08T07:17:01.753Z,7.70
2023-09-08T07:19:28.968Z,8.20
2023-09-08T07:21:56.063Z,8.23
2023-09-08T07:24:23.141Z,7.90
2023-09-08T07:26:50.241Z,7.60
2023-09-08T07:29:17.348Z,6.70
2023-09-08T07:31:44.336Z,6.43
2023-09-08T07:34:11.385Z,6.87
2023-09-08T07:36:38.575Z,6.20
2023-09-08T07:39:05.787Z,6.50
2023-09-08T07:41:32.805Z,5.73
2023-09-08T07:43:59.829Z,7.10
2023-09-08T07:46:27.064Z,6.37
2023-09-08T07:48:54.224Z,5.93
2023-09-08T07:51:21.269Z,6.13
2023-09-08T07:53:48.299Z,6.40
2023-09-08T07:56:15.428Z,6.10
2023-09-08T07:58:42.592Z,6.50
2023-09-08T08:01:09.778Z,5.90
2023-09-08T08:03:37.183Z,6.00
2023-09-08T08:06:04.365Z,6.20
2023-09-08T08:08:31.693Z,6.07
2023-09-08T08:11:00.209Z,5.90
2023-09-08T08:13:27.213Z,6.07
2023-09-08T08:15:54.314Z,6.03
2023-09-08T08:18:21.654Z,6.50
2023-09-08T08:20:49.604Z,6.43
2023-09-08T08:23:16.604Z,5.90
2023-09-08T08:25:43.603Z,7.10
2023-09-08T08:28:10.697Z,6.00
2023-09-08T08:30:37.733Z,6.00
2023-09-08T08:33:05.524Z,5.90
2023-09-08T08:35:32.613Z,5.70
2023-09-08T08:38:01.468Z,6.40
2023-09-08T08:40:29.464Z,6.53
2023-09-08T08:43:00.051Z,6.23
2023-09-08T08:45:31.541Z,6.13
2023-09-08T08:47:59.686Z,6.20
2023-09-08T08:50:28.034Z,6.10
2023-09-08T08:52:55.258Z,6.73
2023-09-08T08:55:22.978Z,6.30
2023-09-08T08:57:50.772Z,5.80
2023-09-08T09:00:19.714Z,7.10
2023-09-08T09:05:19.534Z,6.63
2023-09-08T09:07:46.589Z,5.77
2023-09-08T09:10:15.093Z,6.43
2023-09-08T09:12:42.096Z,5.83
2023-09-08T09:15:09.828Z,6.30
2023-09-08T09:17:37.558Z,5.20
2023-09-08T09:20:21.202Z,5.83
2023-09-08T09:22:50.239Z,6.57
2023-09-08T09:25:30.173Z,5.57
2023-09-08T09:28:03.512Z,5.63
2023-09-08T09:30:49.739Z,6.00
2023-09-08T09:33:17.312Z,5.33
2023-09-08T09:35:53.092Z,5.63
2023-09-08T09:38:21.941Z,5.13
2023-09-08T09:40:50.297Z,6.20
2023-09-08T09:43:18.579Z,6.50
2023-09-08T09:45:46.332Z,5.63
2023-09-08T09:48:13.740Z,5.90
2023-09-08T09:50:42.850Z,5.77
2023-09-08T09:53:17.852Z,6.07
2023-09-08T09:55:46.420Z,5.70
2023-09-08T09:58:15.422Z,6.17
2023-09-08T10:00:42.960Z,5.10
2023-09-08T10:03:10.705Z,5.70
2023-09-08T10:05:38.645Z,5.70
2023-09-08T10:08:06.447Z,6.20
2023-09-08T10:10:35.736Z,6.03
2023-09-08T10:13:08.443Z,6.33
2023-09-08T10:15:36.888Z,5.90
2023-09-08T10:18:06.844Z,6.70
2023-09-08T10:20:35.869Z,6.20
2023-09-08T10:23:07.796Z,6.27
2023-09-08T10:25:45.851Z,6.57
2023-09-08T10:28:14.385Z,6.80
2023-09-08T10:30:42.541Z,5.73
2023-09-08T10:33:11.186Z,5.60
2023-09-08T10:35:39.227Z,6.20
2023-09-08T10:38:25.590Z,5.90
2023-09-08T10:40:53.886Z,5.73
2023-09-08T10:43:21.416Z,6.00
2023-09-08T10:45:48.930Z,5.87
2023-09-08T10:48:17.056Z,6.07
2023-09-08T10:50:44.575Z,5.30
2023-09-08T10:53:16.882Z,5.50
2023-09-08T10:56:06.887Z,5.67
2023-09-08T10:58:44.667Z,5.40
2023-09-08T11:01:27.771Z,5.60
2023-09-08T11:03:55.408Z,5.60
2023-09-08T11:06:24.449Z,5.57
2023-09-08T11:08:57.217Z,5.90
2023-09-08T11:11:24.556Z,5.83
2023-09-08T11:13:51.762Z,5.73
2023-09-08T11:16:27.726Z,5.47
2023-09-08T11:18:54.867Z,5.67
2023-09-08T11:21:22.303Z,6.00
2023-09-08T11:23:49.508Z,5.87
2023-09-08T11:26:17.846Z,5.40
2023-09-08T11:28:45.263Z,5.40
2023-09-08T11:31:13.930Z,5.40
2023-09-08T11:33:41.387Z,5.67
2023-09-08T11:36:16.381Z,5.63
2023-09-08T11:38:46.302Z,5.93
2023-09-08T11:41:13.791Z,6.17
2023-09-08T11:43:41.104Z,6.10
2023-09-08T11:46:08.621Z,5.60
2023-09-08T11:48:36.645Z,5.70
2023-09-08T11:51:04.106Z,5.50
2023-09-08T11:53:34.642Z,6.20
2023-09-08T11:56:01.875Z,5.90
2023-09-08T11:58:29.263Z,5.53
2023-09-08T12:00:56.628Z,5.40
2023-09-08T12:03:23.739Z,5.60
2023-09-08T12:05:54.342Z,4.77
2023-09-08T12:08:21.510Z,5.43
2023-09-08T12:10:48.477Z,5.43
2023-09-08T12:13:26.222Z,5.03
2023-09-08T12:15:54.006Z,4.67
2023-09-08T12:18:38.558Z,5.10
2023-09-08T12:21:06.853Z,4.93
2023-09-08T12:23:33.781Z,5.07
2023-09-08T12:26:00.818Z,5.93
2023-09-08T12:28:32.941Z,4.73
2023-09-08T12:30:59.983Z,4.60
2023-09-08T12:33:28.034Z,5.30
2023-09-08T12:35:55.006Z,5.40
2023-09-08T12:38:22.216Z,4.60
2023-09-08T12:40:49.676Z,4.80
2023-09-08T12:43:26.963Z,5.30
2023-09-08T12:45:57.363Z,4.13
2023-09-08T12:48:25.267Z,4.93
2023-09-08T12:50:52.215Z,4.33
2023-09-08T12:53:19.797Z,4.40
2023-09-08T12:55:48.015Z,4.20
2023-09-08T12:58:15.357Z,4.13
2023-09-08T13:00:42.370Z,4.13
2023-09-08T13:03:09.699Z,4.87
2023-09-08T13:05:39.592Z,4.97
2023-09-08T13:08:06.875Z,4.10
2023-09-08T13:10:34.487Z,4.67
2023-09-08T13:13:02.167Z,4.20
2023-09-08T13:15:29.522Z,4.40
2023-09-08T13:17:57.142Z,5.30
2023-09-08T13:20:24.240Z,4.60
2023-09-08T13:22:51.269Z,4.80
2023-09-08T13:25:18.312Z,4.57
2023-09-08T13:27:45.379Z,5.30
2023-09-08T13:30:16.910Z,4.87
2023-09-08T13:32:45.782Z,4.80
2023-09-08T13:35:13.160Z,4.50
2023-09-08T13:37:40.571Z,4.83
2023-09-08T13:40:09.304Z,4.73
2023-09-08T13:42:37.184Z,4.77
2023-09-08T13:45:05.627Z,5.20
2023-09-08T13:47:33.440Z,4.73
2023-09-08T13:50:02.788Z,4.50
2023-09-08T13:52:33.356Z,4.70
2023-09-08T13:57:41.488Z,4.90
2023-09-08T14:00:15.608Z,4.60
2023-09-08T14:02:50.649Z,4.43
2023-09-08T14:05:20.901Z,5.07
2023-09-08T14:07:58.912Z,4.80
2023-09-08T14:13:04.088Z,4.90
2023-09-08T14:15:31.140Z,4.57
2023-09-08T14:17:58.172Z,4.43
2023-09-08T14:20:25.187Z,4.33
2023-09-08T14:22:52.172Z,4.63
2023-09-08T14:25:19.212Z,4.53
2023-09-08T14:27:46.142Z,4.23
2023-09-08T14:30:13.321Z,4.57
2023-09-08T14:32:40.728Z,4.57
2023-09-08T14:35:08.141Z,5.00
2023-09-08T14:37:35.160Z,4.90
2023-09-08T14:40:02.260Z,5.10
2023-09-08T14:42:30.304Z,4.77
2023-09-08T14:44:57.240Z,4.13
2023-09-08T14:47:24.506Z,4.43
2023-09-08T14:49:51.479Z,4.57
2023-09-08T14:52:21.656Z,4.60
2023-09-08T14:54:48.679Z,4.67
2023-09-08T14:57:15.699Z,4.33
2023-09-08T14:59:42.686Z,5.17
2023-09-08T15:02:10.901Z,5.10
2023-09-08T15:04:38.218Z,4.73
2023-09-08T15:07:05.592Z,5.20
2023-09-08T15:09:32.708Z,4.93
2023-09-08T15:11:59.648Z,4.67
2023-09-08T15:14:26.632Z,5.00
2023-09-08T15:16:53.644Z,4.80
2023-09-08T15:19:20.863Z,4.50
2023-09-08T15:21:47.799Z,4.60
2023-09-08T15:24:14.737Z,4.83
2023-09-08T15:26:41.703Z,4.90
2023-09-08T15:29:09.428Z,4.63
2023-09-08T15:31:36.653Z,4.93
2023-09-08T15:34:03.726Z,4.87
2023-09-08T15:36:30.852Z,4.60
2023-09-08T15:38:57.773Z,4.77
2023-09-08T15:41:24.761Z,5.00
2023-09-08T15:43:52.631Z,4.63
2023-09-08T15:46:20.723Z,4.43
2023-09-08T15:48:49.100Z,4.80
2023-09-08T15:51:16.527Z,4.70
2023-09-08T15:53:43.537Z,4.57
2023-09-08T15:56:11.082Z,3.80
2023-09-08T15:58:38.348Z,4.67
2023-09-08T16:01:07.985Z,4.50
2023-09-08T16:03:36.655Z,4.90
2023-09-08T16:06:04.187Z,4.47
2023-09-08T16:08:31.250Z,4.20
2023-09-08T16:11:00.612Z,4.30
2023-09-08T16:13:27.591Z,4.27
2023-09-08T16:15:54.546Z,4.50
2023-09-08T16:18:21.513Z,3.53
2023-09-08T16:20:49.310Z,4.43
2023-09-08T16:23:16.315Z,4.37
2023-09-08T16:25:43.320Z,3.70
2023-09-08T16:28:11.158Z,4.53
2023-09-08T16:30:38.124Z,4.07
2023-09-08T16:33:05.427Z,4.00
2023-09-08T16:35:32.505Z,4.40
2023-09-08T16:37:59.559Z,4.07
2023-09-08T16:40:26.983Z,4.67
2023-09-08T16:42:54.016Z,4.60
2023-09-08T16:45:21.051Z,4.33
2023-09-08T16:47:48.026Z,5.23
2023-09-08T16:50:15.010Z,4.53
2023-09-08T16:52:42.050Z,4.40
2023-09-08T16:55:12.459Z,4.10
2023-09-08T16:57:40.430Z,4.23
2023-09-08T17:00:09.220Z,4.00
2023-09-08T17:02:39.438Z,4.33
2023-09-08T17:05:09.216Z,4.50
2023-09-08T17:07:36.350Z,4.20
2023-09-08T17:10:04.728Z,4.00
2023-09-08T17:12:32.667Z,4.20
2023-09-08T17:14:59.714Z,3.90
2023-09-08T17:17:26.816Z,4.30
2023-09-08T17:19:53.859Z,4.17
2023-09-08T17:22:20.976Z,4.07
2023-09-08T17:24:48.026Z,4.00
2023-09-08T17:27:15.053Z,3.63
2023-09-08T17:29:42.018Z,4.03
2023-09-08T17:32:09.978Z,4.40
2023-09-08T17:34:36.911Z,4.63
2023-09-08T17:37:04.501Z,4.43
2023-09-08T17:39:31.765Z,4.50
2023-09-08T17:41:58.848Z,4.50
2023-09-08T17:44:26.085Z,4.93
2023-09-08T17:46:53.331Z,4.90
2023-09-08T17:49:20.369Z,4.40
2023-09-08T17:51:47.443Z,4.77
2023-09-08T17:54:14.489Z,4.17
2023-09-08T17:56:41.654Z,4.50
2023-09-08T17:59:08.885Z,4.93
2023-09-08T18:01:38.147Z,4.90
2023-09-08T18:04:07.200Z,5.13
2023-09-08T18:06:34.348Z,5.27
2023-09-08T18:09:02.014Z,4.77
2023-09-08T18:11:29.363Z,5.33
2023-09-08T18:13:57.111Z,5.27
2023-09-08T18:16:24.480Z,4.17
2023-09-08T18:18:51.577Z,6.17
2023-09-08T18:21:18.673Z,5.43
2023-09-08T18:23:47.531Z,5.30
2023-09-08T18:26:17.353Z,5.20
2023-09-08T18:28:44.687Z,5.70
2023-09-08T18:31:12.505Z,4.97
2023-09-08T18:33:39.885Z,5.10
2023-09-08T18:36:07.791Z,5.20
2023-09-08T18:38:35.291Z,5.10
2023-09-08T18:41:02.530Z,5.20
2023-09-08T18:43:29.709Z,5.17
2023-09-08T18:45:56.727Z,5.53
2023-09-08T18:48:24.403Z,5.17
2023-09-08T18:50:51.644Z,5.17
2023-09-08T18:53:18.695Z,5.83
2023-09-08T18:55:46.004Z,5.87
2023-09-08T18:58:14.465Z,5.27
2023-09-08T19:00:45.994Z,6.73
2023-09-08T19:03:13.753Z,5.67
2023-09-08T19:05:41.884Z,6.30
2023-09-08T19:08:09.740Z,6.37
2023-09-08T19:10:37.318Z,5.90
2023-09-08T19:13:05.521Z,6.10
2023-09-08T19:15:32.848Z,5.60
2023-09-08T19:18:00.061Z,6.10
2023-09-08T19:20:27.191Z,6.10
2023-09-08T19:22:54.890Z,6.17
2023-09-08T19:25:22.578Z,6.70
2023-09-08T19:27:50.759Z,6.90
2023-09-08T19:30:18.441Z,6.77
2023-09-08T19:32:45.893Z,5.80
2023-09-08T19:35:13.118Z,6.47
2023-09-08T19:37:40.352Z,5.93
2023-09-08T19:40:08.613Z,6.07
2023-09-08T19:42:35.672Z,5.90
2023-09-08T19:45:02.852Z,6.37
2023-09-08T19:47:30.041Z,6.30
2023-09-08T19:49:57.241Z,6.10
2023-09-08T19:52:24.285Z,6.43
2023-09-08T19:54:51.323Z,6.00
2023-09-08T19:57:18.405Z,6.90
2023-09-08T19:59:46.441Z,6.20
2023-09-08T20:02:13.427Z,6.20
2023-09-08T20:04:40.742Z,6.80
2023-09-08T20:07:08.025Z,6.40
2023-09-08T20:09:35.048Z,6.67
2023-09-08T20:12:02.443Z,6.30
2023-09-08T20:14:30.683Z,6.60
2023-09-08T20:16:57.683Z,8.07
2023-09-08T20:19:24.566Z,6.70
2023-09-08T20:21:51.607Z,8.13
2023-09-08T20:24:19.408Z,7.90
2023-09-08T20:26:46.316Z,9.30
2023-09-08T20:29:13.750Z,7.20
2023-09-08T20:31:40.872Z,7.40
2023-09-08T20:34:08.201Z,7.87
2023-09-08T20:36:35.201Z,7.90
2023-09-08T20:39:02.191Z,7.87
2023-09-08T20:41:30.429Z,7.57
2023-09-08T20:43:57.530Z,8.10
2023-09-08T20:46:24.584Z,8.00
2023-09-08T20:48:51.626Z,8.70
2023-09-08T20:51:24.054Z,7.83
2023-09-08T20:53:51.076Z,8.03
2023-09-08T20:56:18.082Z,8.23
2023-09-08T20:58:45.092Z,7.20
2023-09-08T21:01:12.226Z,8.90
2023-09-08T21:03:40.297Z,8.03
2023-09-08T21:06:08.435Z,8.10
2023-09-08T21:08:35.385Z,8.33
2023-09-08T21:11:03.538Z,7.90
2023-09-08T21:13:30.770Z,9.03
2023-09-08T21:15:57.804Z,9.67
2023-09-08T21:18:24.827Z,9.10
2023-09-08T21:20:51.889Z,8.67
2023-09-08T21:23:19.291Z,8.70
2023-09-08T21:25:46.293Z,8.73
2023-09-08T21:28:13.357Z,8.20
2023-09-08T21:30:40.753Z,7.97
2023-09-08T21:33:07.859Z,8.10
2023-09-08T21:35:35.040Z,8.47
2023-09-08T21:38:02.060Z,9.77
2023-09-08T21:40:29.776Z,8.37
2023-09-08T21:42:56.816Z,7.80
2023-09-08T21:45:23.929Z,8.57
2023-09-08T21:47:51.664Z,8.73
2023-09-08T21:50:19.219Z,9.63
2023-09-08T21:52:46.510Z,9.17
2023-09-08T21:55:14.103Z,9.03
2023-09-08T21:57:41.340Z,9.43
2023-09-08T22:00:12.619Z,9.87
2023-09-08T22:02:39.831Z,8.80
2023-09-08T22:05:07.464Z,9.00
2023-09-08T22:07:34.643Z,8.47
2023-09-08T22:10:01.727Z,7.33
2023-09-08T22:12:29.258Z,7.63
2023-09-08T22:14:56.767Z,8.33
2023-09-08T22:17:23.911Z,7.83
2023-09-08T22:19:54.473Z,10.43
2023-09-08T22:22:21.541Z,9.63
2023-09-08T22:24:48.541Z,9.00
2023-09-08T22:27:15.773Z,9.23
2023-09-08T22:29:42.774Z,8.10
2023-09-08T22:32:10.066Z,8.90
2023-09-08T22:34:37.218Z,8.00
2023-09-08T22:37:05.027Z,8.70
2023-09-08T22:39:33.611Z,9.20
2023-09-08T22:42:00.591Z,9.10
2023-09-08T22:44:27.640Z,9.80
2023-09-08T22:46:54.694Z,9.60
2023-09-08T22:49:21.644Z,10.10
2023-09-08T22:51:48.720Z,8.77
2023-09-08T22:54:15.781Z,10.33
2023-09-08T22:56:43.009Z,9.43
2023-09-08T22:59:10.703Z,9.93
2023-09-08T23:01:38.106Z,10.37
2023-09-08T23:04:06.201Z,9.90
2023-09-08T23:06:33.365Z,10.73
2023-09-08T23:09:00.376Z,10.80
2023-09-08T23:11:29.626Z,10.17
2023-09-08T23:13:56.725Z,11.50
2023-09-08T23:16:24.327Z,10.87
2023-09-08T23:18:51.324Z,10.33
2023-09-08T23:21:18.317Z,11.30
2023-09-08T23:23:45.252Z,11.07
2023-09-08T23:26:12.165Z,11.27
2023-09-08T23:28:39.116Z,10.87
2023-09-08T23:31:06.125Z,9.87
2023-09-08T23:33:33.155Z,10.93
2023-09-08T23:36:00.277Z,10.87
2023-09-08T23:38:27.317Z,10.50
2023-09-08T23:40:54.229Z,11.00
2023-09-08T23:43:21.249Z,10.33
2023-09-08T23:45:48.353Z,10.87
2023-09-08T23:48:15.671Z,9.50
2023-09-08T23:50:58.223Z,9.67
2023-09-08T23:53:29.680Z,10.43
2023-09-08T23:55:57.060Z,9.10
2023-09-08T23:58:24.136Z,9.80
